sensor_id;sensor_type;location;lat;lon;timestamp;P1;durP1;ratioP1;P2;durP2;ratioP2
79338;SDS011;68809;41.712;44.768;2023-05-07T00:00:11;8.93;;;4.65;;
79338;SDS011;68809;41.712;44.768;2023-05-07T00:02:41;11.50;;;4.87;;
79338;SDS011;68809;41.712;44.768;2023-05-07T00:05:07;12.18;;;5.20;;
79338;SDS011;68809;41.712;44.768;2023-05-07T00:07:34;11.00;;;4.97;;
79338;SDS011;68809;41.712;44.768;2023-05-07T00:10:00;12.05;;;5.28;;
79338;SDS011;68809;41.712;44.768;2023-05-07T00:12:27;9.82;;;5.20;;
79338;SDS011;68809;41.712;44.768;2023-05-07T00:14:57;10.77;;;4.97;;
79338;SDS011;68809;41.712;44.768;2023-05-07T00:17:23;9.15;;;5.35;;
79338;SDS011;68809;41.712;44.768;2023-05-07T00:19:49;12.07;;;5.10;;
79338;SDS011;68809;41.712;44.768;2023-05-07T00:22:15;11.60;;;4.95;;
79338;SDS011;68809;41.712;44.768;2023-05-07T00:24:41;11.48;;;5.18;;
79338;SDS011;68809;41.712;44.768;2023-05-07T00:27:07;10.43;;;4.80;;
79338;SDS011;68809;41.712;44.768;2023-05-07T00:29:34;10.75;;;5.05;;
79338;SDS011;68809;41.712;44.768;2023-05-07T00:32:00;11.82;;;4.97;;
79338;SDS011;68809;41.712;44.768;2023-05-07T00:34:26;9.75;;;4.95;;
79338;SDS011;68809;41.712;44.768;2023-05-07T00:36:52;9.60;;;4.85;;
79338;SDS011;68809;41.712;44.768;2023-05-07T00:39:18;10.90;;;4.53;;
79338;SDS011;68809;41.712;44.768;2023-05-07T00:41:45;11.38;;;5.00;;
79338;SDS011;68809;41.712;44.768;2023-05-07T00:44:11;9.95;;;4.78;;
79338;SDS011;68809;41.712;44.768;2023-05-07T00:46:37;8.52;;;4.93;;
79338;SDS011;68809;41.712;44.768;2023-05-07T00:49:04;10.20;;;4.80;;
79338;SDS011;68809;41.712;44.768;2023-05-07T00:51:30;10.17;;;4.80;;
79338;SDS011;68809;41.712;44.768;2023-05-07T00:53:56;10.10;;;4.55;;
79338;SDS011;68809;41.712;44.768;2023-05-07T00:56:23;9.77;;;4.90;;
79338;SDS011;68809;41.712;44.768;2023-05-07T00:58:49;11.82;;;4.78;;
79338;SDS011;68809;41.712;44.768;2023-05-07T01:01:15;11.52;;;5.07;;
79338;SDS011;68809;41.712;44.768;2023-05-07T01:03:42;9.10;;;4.70;;
79338;SDS011;68809;41.712;44.768;2023-05-07T01:06:08;9.25;;;4.45;;
79338;SDS011;68809;41.712;44.768;2023-05-07T01:08:38;10.52;;;4.93;;
79338;SDS011;68809;41.712;44.768;2023-05-07T01:11:06;8.73;;;4.70;;
79338;SDS011;68809;41.712;44.768;2023-05-07T01:13:33;9.77;;;4.72;;
79338;SDS011;68809;41.712;44.768;2023-05-07T01:16:01;10.10;;;5.30;;
79338;SDS011;68809;41.712;44.768;2023-05-07T01:18:28;8.50;;;4.70;;
79338;SDS011;68809;41.712;44.768;2023-05-07T01:20:56;11.13;;;5.10;;
79338;SDS011;68809;41.712;44.768;2023-05-07T01:23:24;10.93;;;5.50;;
79338;SDS011;68809;41.712;44.768;2023-05-07T01:25:52;11.25;;;5.00;;
79338;SDS011;68809;41.712;44.768;2023-05-07T01:28:19;9.23;;;4.63;;
79338;SDS011;68809;41.712;44.768;2023-05-07T01:30:47;21.20;;;12.40;;
79338;SDS011;68809;41.712;44.768;2023-05-07T01:33:17;19.50;;;10.60;;
79338;SDS011;68809;41.712;44.768;2023-05-07T01:35:48;10.95;;;6.05;;
79338;SDS011;68809;41.712;44.768;2023-05-07T01:38:17;14.20;;;5.00;;
79338;SDS011;68809;41.712;44.768;2023-05-07T01:40:44;9.70;;;4.50;;
79338;SDS011;68809;41.712;44.768;2023-05-07T01:43:11;9.30;;;4.70;;
79338;SDS011;68809;41.712;44.768;2023-05-07T01:45:38;11.52;;;4.90;;
79338;SDS011;68809;41.712;44.768;2023-05-07T01:48:06;10.10;;;5.30;;
79338;SDS011;68809;41.712;44.768;2023-05-07T01:50:33;9.90;;;5.03;;
79338;SDS011;68809;41.712;44.768;2023-05-07T01:52:59;10.17;;;5.13;;
79338;SDS011;68809;41.712;44.768;2023-05-07T01:55:28;10.88;;;5.25;;
79338;SDS011;68809;41.712;44.768;2023-05-07T01:57:54;8.00;;;4.82;;
79338;SDS011;68809;41.712;44.768;2023-05-07T02:00:20;11.73;;;5.22;;
79338;SDS011;68809;41.712;44.768;2023-05-07T02:02:47;10.70;;;5.10;;
79338;SDS011;68809;41.712;44.768;2023-05-07T02:05:25;10.57;;;4.77;;
79338;SDS011;68809;41.712;44.768;2023-05-07T02:07:58;9.75;;;4.82;;
79338;SDS011;68809;41.712;44.768;2023-05-07T02:10:26;8.75;;;4.63;;
79338;SDS011;68809;41.712;44.768;2023-05-07T02:12:53;10.15;;;4.82;;
79338;SDS011;68809;41.712;44.768;2023-05-07T02:15:19;10.10;;;5.25;;
79338;SDS011;68809;41.712;44.768;2023-05-07T02:17:59;11.83;;;5.67;;
79338;SDS011;68809;41.712;44.768;2023-05-07T02:20:30;10.23;;;5.45;;
79338;SDS011;68809;41.712;44.768;2023-05-07T02:22:56;10.40;;;5.00;;
79338;SDS011;68809;41.712;44.768;2023-05-07T02:25:22;9.35;;;4.80;;
79338;SDS011;68809;41.712;44.768;2023-05-07T02:27:48;12.02;;;5.25;;
79338;SDS011;68809;41.712;44.768;2023-05-07T02:30:15;10.20;;;5.20;;
79338;SDS011;68809;41.712;44.768;2023-05-07T02:32:42;12.05;;;5.13;;
79338;SDS011;68809;41.712;44.768;2023-05-07T02:35:08;9.63;;;5.10;;
79338;SDS011;68809;41.712;44.768;2023-05-07T02:37:35;10.60;;;5.05;;
79338;SDS011;68809;41.712;44.768;2023-05-07T02:40:01;11.55;;;5.90;;
79338;SDS011;68809;41.712;44.768;2023-05-07T02:42:29;12.43;;;5.40;;
79338;SDS011;68809;41.712;44.768;2023-05-07T02:44:55;12.73;;;5.80;;
79338;SDS011;68809;41.712;44.768;2023-05-07T02:47:21;11.15;;;5.60;;
79338;SDS011;68809;41.712;44.768;2023-05-07T02:49:48;10.90;;;5.57;;
79338;SDS011;68809;41.712;44.768;2023-05-07T02:52:14;13.90;;;5.95;;
79338;SDS011;68809;41.712;44.768;2023-05-07T02:54:40;11.57;;;5.60;;
79338;SDS011;68809;41.712;44.768;2023-05-07T02:57:06;12.73;;;5.60;;
79338;SDS011;68809;41.712;44.768;2023-05-07T02:59:32;12.82;;;5.90;;
79338;SDS011;68809;41.712;44.768;2023-05-07T03:01:59;10.73;;;6.07;;
79338;SDS011;68809;41.712;44.768;2023-05-07T03:04:25;12.57;;;6.25;;
79338;SDS011;68809;41.712;44.768;2023-05-07T03:06:51;11.07;;;5.80;;
79338;SDS011;68809;41.712;44.768;2023-05-07T03:09:17;10.68;;;5.80;;
79338;SDS011;68809;41.712;44.768;2023-05-07T03:11:44;15.30;;;6.57;;
79338;SDS011;68809;41.712;44.768;2023-05-07T03:14:10;14.43;;;6.60;;
79338;SDS011;68809;41.712;44.768;2023-05-07T03:16:36;16.23;;;7.30;;
79338;SDS011;68809;41.712;44.768;2023-05-07T03:19:04;17.37;;;8.03;;
79338;SDS011;68809;41.712;44.768;2023-05-07T03:21:30;15.60;;;8.07;;
79338;SDS011;68809;41.712;44.768;2023-05-07T03:24:00;15.45;;;8.20;;
79338;SDS011;68809;41.712;44.768;2023-05-07T03:26:26;17.58;;;7.85;;
79338;SDS011;68809;41.712;44.768;2023-05-07T03:28:52;16.13;;;8.23;;
79338;SDS011;68809;41.712;44.768;2023-05-07T03:31:19;15.17;;;8.40;;
79338;SDS011;68809;41.712;44.768;2023-05-07T03:33:52;17.00;;;8.50;;
79338;SDS011;68809;41.712;44.768;2023-05-07T03:36:19;19.13;;;7.93;;
79338;SDS011;68809;41.712;44.768;2023-05-07T03:38:46;14.77;;;7.50;;
79338;SDS011;68809;41.712;44.768;2023-05-07T03:41:13;15.45;;;7.78;;
79338;SDS011;68809;41.712;44.768;2023-05-07T03:43:40;13.37;;;7.97;;
79338;SDS011;68809;41.712;44.768;2023-05-07T03:46:09;14.55;;;8.00;;
79338;SDS011;68809;41.712;44.768;2023-05-07T03:48:35;16.48;;;7.68;;
79338;SDS011;68809;41.712;44.768;2023-05-07T03:51:01;15.63;;;7.80;;
79338;SDS011;68809;41.712;44.768;2023-05-07T03:53:31;13.85;;;7.38;;
79338;SDS011;68809;41.712;44.768;2023-05-07T03:55:57;14.10;;;7.40;;
79338;SDS011;68809;41.712;44.768;2023-05-07T03:58:24;18.00;;;6.45;;
79338;SDS011;68809;41.712;44.768;2023-05-07T04:00:51;15.50;;;7.03;;
79338;SDS011;68809;41.712;44.768;2023-05-07T04:03:23;14.27;;;6.82;;
79338;SDS011;68809;41.712;44.768;2023-05-07T04:05:49;12.65;;;6.47;;
79338;SDS011;68809;41.712;44.768;2023-05-07T04:08:15;15.20;;;6.37;;
79338;SDS011;68809;41.712;44.768;2023-05-07T04:10:46;13.15;;;6.60;;
79338;SDS011;68809;41.712;44.768;2023-05-07T04:13:12;13.55;;;6.57;;
79338;SDS011;68809;41.712;44.768;2023-05-07T04:15:39;16.00;;;6.70;;
79338;SDS011;68809;41.712;44.768;2023-05-07T04:18:09;15.88;;;6.78;;
79338;SDS011;68809;41.712;44.768;2023-05-07T04:20:36;17.03;;;6.70;;
79338;SDS011;68809;41.712;44.768;2023-05-07T04:23:04;17.27;;;6.70;;
79338;SDS011;68809;41.712;44.768;2023-05-07T04:25:31;17.90;;;6.97;;
79338;SDS011;68809;41.712;44.768;2023-05-07T04:28:06;17.48;;;7.00;;
79338;SDS011;68809;41.712;44.768;2023-05-07T04:30:33;13.57;;;6.63;;
79338;SDS011;68809;41.712;44.768;2023-05-07T04:33:01;16.97;;;7.30;;
79338;SDS011;68809;41.712;44.768;2023-05-07T04:35:29;15.88;;;7.20;;
79338;SDS011;68809;41.712;44.768;2023-05-07T04:37:56;15.10;;;7.10;;
79338;SDS011;68809;41.712;44.768;2023-05-07T04:40:22;13.73;;;7.00;;
79338;SDS011;68809;41.712;44.768;2023-05-07T04:42:49;15.27;;;7.40;;
79338;SDS011;68809;41.712;44.768;2023-05-07T04:45:16;15.30;;;7.30;;
79338;SDS011;68809;41.712;44.768;2023-05-07T04:47:44;14.13;;;7.45;;
79338;SDS011;68809;41.712;44.768;2023-05-07T04:50:10;16.55;;;7.80;;
79338;SDS011;68809;41.712;44.768;2023-05-07T04:52:38;16.25;;;7.60;;
79338;SDS011;68809;41.712;44.768;2023-05-07T04:55:05;15.80;;;7.60;;
79338;SDS011;68809;41.712;44.768;2023-05-07T04:57:36;14.83;;;7.60;;
79338;SDS011;68809;41.712;44.768;2023-05-07T05:00:05;15.60;;;7.75;;
79338;SDS011;68809;41.712;44.768;2023-05-07T05:02:35;16.10;;;8.23;;
79338;SDS011;68809;41.712;44.768;2023-05-07T05:05:01;15.93;;;7.70;;
79338;SDS011;68809;41.712;44.768;2023-05-07T05:07:30;14.35;;;7.50;;
79338;SDS011;68809;41.712;44.768;2023-05-07T05:09:57;16.57;;;7.80;;
79338;SDS011;68809;41.712;44.768;2023-05-07T05:12:24;16.85;;;7.63;;
79338;SDS011;68809;41.712;44.768;2023-05-07T05:14:50;16.20;;;7.38;;
79338;SDS011;68809;41.712;44.768;2023-05-07T05:17:17;15.57;;;7.68;;
79338;SDS011;68809;41.712;44.768;2023-05-07T05:19:43;16.13;;;7.07;;
79338;SDS011;68809;41.712;44.768;2023-05-07T05:22:09;13.83;;;7.40;;
79338;SDS011;68809;41.712;44.768;2023-05-07T05:24:35;17.30;;;8.00;;
79338;SDS011;68809;41.712;44.768;2023-05-07T05:27:02;13.13;;;6.95;;
79338;SDS011;68809;41.712;44.768;2023-05-07T05:29:30;15.75;;;7.70;;
79338;SDS011;68809;41.712;44.768;2023-05-07T05:31:57;15.60;;;7.65;;
79338;SDS011;68809;41.712;44.768;2023-05-07T05:34:25;17.77;;;7.90;;
79338;SDS011;68809;41.712;44.768;2023-05-07T05:36:52;12.85;;;7.15;;
79338;SDS011;68809;41.712;44.768;2023-05-07T05:39:18;16.70;;;7.57;;
79338;SDS011;68809;41.712;44.768;2023-05-07T05:41:44;13.85;;;7.60;;
79338;SDS011;68809;41.712;44.768;2023-05-07T05:44:12;13.95;;;7.18;;
79338;SDS011;68809;41.712;44.768;2023-05-07T05:46:39;16.27;;;7.67;;
79338;SDS011;68809;41.712;44.768;2023-05-07T05:49:06;17.85;;;8.35;;
79338;SDS011;68809;41.712;44.768;2023-05-07T05:51:32;16.35;;;7.57;;
79338;SDS011;68809;41.712;44.768;2023-05-07T05:53:59;16.15;;;7.70;;
79338;SDS011;68809;41.712;44.768;2023-05-07T05:56:25;14.45;;;7.80;;
79338;SDS011;68809;41.712;44.768;2023-05-07T05:58:51;16.57;;;7.80;;
79338;SDS011;68809;41.712;44.768;2023-05-07T06:01:18;14.45;;;7.72;;
79338;SDS011;68809;41.712;44.768;2023-05-07T06:03:45;13.57;;;7.25;;
79338;SDS011;68809;41.712;44.768;2023-05-07T06:06:14;15.23;;;8.68;;
79338;SDS011;68809;41.712;44.768;2023-05-07T06:08:41;14.48;;;7.18;;
79338;SDS011;68809;41.712;44.768;2023-05-07T06:11:09;16.40;;;7.90;;
79338;SDS011;68809;41.712;44.768;2023-05-07T06:13:38;17.40;;;7.70;;
79338;SDS011;68809;41.712;44.768;2023-05-07T06:16:05;14.05;;;7.90;;
79338;SDS011;68809;41.712;44.768;2023-05-07T06:18:32;14.60;;;7.88;;
79338;SDS011;68809;41.712;44.768;2023-05-07T06:20:58;14.70;;;7.57;;
79338;SDS011;68809;41.712;44.768;2023-05-07T06:23:28;13.87;;;7.27;;
79338;SDS011;68809;41.712;44.768;2023-05-07T06:25:54;12.93;;;7.47;;
79338;SDS011;68809;41.712;44.768;2023-05-07T06:28:25;14.77;;;7.40;;
79338;SDS011;68809;41.712;44.768;2023-05-07T06:30:51;14.18;;;6.70;;
79338;SDS011;68809;41.712;44.768;2023-05-07T06:33:17;13.00;;;6.80;;
79338;SDS011;68809;41.712;44.768;2023-05-07T06:35:45;17.53;;;6.77;;
79338;SDS011;68809;41.712;44.768;2023-05-07T06:38:11;12.68;;;7.05;;
79338;SDS011;68809;41.712;44.768;2023-05-07T06:40:38;13.98;;;7.07;;
79338;SDS011;68809;41.712;44.768;2023-05-07T06:43:05;11.85;;;6.63;;
79338;SDS011;68809;41.712;44.768;2023-05-07T06:45:41;10.88;;;6.05;;
79338;SDS011;68809;41.712;44.768;2023-05-07T06:48:09;13.73;;;6.40;;
79338;SDS011;68809;41.712;44.768;2023-05-07T06:50:45;12.25;;;6.22;;
79338;SDS011;68809;41.712;44.768;2023-05-07T06:53:11;11.90;;;6.07;;
79338;SDS011;68809;41.712;44.768;2023-05-07T06:55:38;13.35;;;5.47;;
79338;SDS011;68809;41.712;44.768;2023-05-07T06:58:05;12.80;;;5.80;;
79338;SDS011;68809;41.712;44.768;2023-05-07T07:00:32;11.47;;;5.60;;
79338;SDS011;68809;41.712;44.768;2023-05-07T07:02:58;11.93;;;5.50;;
79338;SDS011;68809;41.712;44.768;2023-05-07T07:05:27;12.05;;;5.70;;
79338;SDS011;68809;41.712;44.768;2023-05-07T07:07:54;12.68;;;5.95;;
79338;SDS011;68809;41.712;44.768;2023-05-07T07:10:21;11.45;;;5.63;;
79338;SDS011;68809;41.712;44.768;2023-05-07T07:12:49;10.80;;;5.67;;
79338;SDS011;68809;41.712;44.768;2023-05-07T07:15:16;11.88;;;5.75;;
79338;SDS011;68809;41.712;44.768;2023-05-07T07:17:43;11.45;;;5.53;;
79338;SDS011;68809;41.712;44.768;2023-05-07T07:20:10;11.35;;;5.72;;
79338;SDS011;68809;41.712;44.768;2023-05-07T07:22:36;11.55;;;6.05;;
79338;SDS011;68809;41.712;44.768;2023-05-07T07:25:03;12.50;;;6.40;;
79338;SDS011;68809;41.712;44.768;2023-05-07T07:27:29;12.45;;;5.85;;
79338;SDS011;68809;41.712;44.768;2023-05-07T07:29:55;11.50;;;5.85;;
79338;SDS011;68809;41.712;44.768;2023-05-07T07:32:22;11.88;;;5.90;;
79338;SDS011;68809;41.712;44.768;2023-05-07T07:34:49;12.18;;;5.90;;
79338;SDS011;68809;41.712;44.768;2023-05-07T07:37:15;12.37;;;5.63;;
79338;SDS011;68809;41.712;44.768;2023-05-07T07:39:41;12.15;;;5.90;;
79338;SDS011;68809;41.712;44.768;2023-05-07T07:42:08;12.25;;;6.05;;
79338;SDS011;68809;41.712;44.768;2023-05-07T07:44:34;11.57;;;5.65;;
79338;SDS011;68809;41.712;44.768;2023-05-07T07:47:05;11.10;;;5.47;;
79338;SDS011;68809;41.712;44.768;2023-05-07T07:49:32;10.47;;;5.53;;
79338;SDS011;68809;41.712;44.768;2023-05-07T07:52:02;8.65;;;5.10;;
79338;SDS011;68809;41.712;44.768;2023-05-07T07:54:30;12.40;;;5.95;;
79338;SDS011;68809;41.712;44.768;2023-05-07T07:56:57;11.25;;;5.57;;
79338;SDS011;68809;41.712;44.768;2023-05-07T07:59:24;10.65;;;5.70;;
79338;SDS011;68809;41.712;44.768;2023-05-07T08:01:50;12.97;;;5.63;;
79338;SDS011;68809;41.712;44.768;2023-05-07T08:04:18;12.20;;;5.95;;
79338;SDS011;68809;41.712;44.768;2023-05-07T08:06:44;11.63;;;5.30;;
79338;SDS011;68809;41.712;44.768;2023-05-07T08:09:11;13.15;;;5.78;;
79338;SDS011;68809;41.712;44.768;2023-05-07T08:11:39;12.95;;;6.20;;
79338;SDS011;68809;41.712;44.768;2023-05-07T08:14:06;12.13;;;5.53;;
79338;SDS011;68809;41.712;44.768;2023-05-07T08:16:32;11.35;;;5.97;;
79338;SDS011;68809;41.712;44.768;2023-05-07T08:19:00;13.63;;;5.82;;
79338;SDS011;68809;41.712;44.768;2023-05-07T08:21:26;12.23;;;5.78;;
79338;SDS011;68809;41.712;44.768;2023-05-07T08:23:53;14.07;;;6.53;;
79338;SDS011;68809;41.712;44.768;2023-05-07T08:26:19;13.40;;;6.37;;
79338;SDS011;68809;41.712;44.768;2023-05-07T08:28:46;13.55;;;6.78;;
79338;SDS011;68809;41.712;44.768;2023-05-07T08:31:12;13.30;;;6.55;;
79338;SDS011;68809;41.712;44.768;2023-05-07T08:33:40;10.73;;;6.00;;
79338;SDS011;68809;41.712;44.768;2023-05-07T08:36:07;15.75;;;7.95;;
79338;SDS011;68809;41.712;44.768;2023-05-07T08:38:33;14.90;;;7.00;;
79338;SDS011;68809;41.712;44.768;2023-05-07T08:41:00;13.93;;;6.78;;
79338;SDS011;68809;41.712;44.768;2023-05-07T08:43:28;11.60;;;6.25;;
79338;SDS011;68809;41.712;44.768;2023-05-07T08:45:58;12.25;;;6.38;;
79338;SDS011;68809;41.712;44.768;2023-05-07T08:48:30;15.27;;;6.35;;
79338;SDS011;68809;41.712;44.768;2023-05-07T08:51:04;13.90;;;6.30;;
79338;SDS011;68809;41.712;44.768;2023-05-07T08:53:31;12.23;;;5.63;;
79338;SDS011;68809;41.712;44.768;2023-05-07T08:55:58;13.95;;;6.43;;
79338;SDS011;68809;41.712;44.768;2023-05-07T08:58:24;18.85;;;6.80;;
79338;SDS011;68809;41.712;44.768;2023-05-07T09:00:51;13.45;;;6.30;;
79338;SDS011;68809;41.712;44.768;2023-05-07T09:03:19;15.90;;;6.93;;
79338;SDS011;68809;41.712;44.768;2023-05-07T09:05:49;15.25;;;6.53;;
79338;SDS011;68809;41.712;44.768;2023-05-07T09:08:17;14.57;;;6.53;;
79338;SDS011;68809;41.712;44.768;2023-05-07T09:10:46;13.95;;;6.40;;
79338;SDS011;68809;41.712;44.768;2023-05-07T09:13:14;11.65;;;5.60;;
79338;SDS011;68809;41.712;44.768;2023-05-07T09:15:40;13.73;;;6.00;;
79338;SDS011;68809;41.712;44.768;2023-05-07T09:18:07;11.88;;;5.82;;
79338;SDS011;68809;41.712;44.768;2023-05-07T09:20:39;12.80;;;5.78;;
79338;SDS011;68809;41.712;44.768;2023-05-07T09:23:06;13.32;;;4.88;;
79338;SDS011;68809;41.712;44.768;2023-05-07T09:25:34;10.55;;;4.90;;
79338;SDS011;68809;41.712;44.768;2023-05-07T09:28:06;12.23;;;4.83;;
79338;SDS011;68809;41.712;44.768;2023-05-07T09:30:33;12.93;;;6.15;;
79338;SDS011;68809;41.712;44.768;2023-05-07T09:33:03;11.75;;;5.70;;
79338;SDS011;68809;41.712;44.768;2023-05-07T09:35:32;11.65;;;4.47;;
79338;SDS011;68809;41.712;44.768;2023-05-07T09:38:04;9.45;;;4.43;;
79338;SDS011;68809;41.712;44.768;2023-05-07T09:40:34;15.63;;;4.50;;
79338;SDS011;68809;41.712;44.768;2023-05-07T09:43:08;11.15;;;4.32;;
79338;SDS011;68809;41.712;44.768;2023-05-07T09:45:38;9.32;;;4.70;;
79338;SDS011;68809;41.712;44.768;2023-05-07T09:48:06;7.95;;;4.10;;
79338;SDS011;68809;41.712;44.768;2023-05-07T09:50:38;11.15;;;4.47;;
79338;SDS011;68809;41.712;44.768;2023-05-07T09:53:10;11.43;;;4.27;;
79338;SDS011;68809;41.712;44.768;2023-05-07T09:55:36;13.43;;;4.03;;
79338;SDS011;68809;41.712;44.768;2023-05-07T09:58:04;9.55;;;3.63;;
79338;SDS011;68809;41.712;44.768;2023-05-07T10:00:31;10.32;;;4.43;;
79338;SDS011;68809;41.712;44.768;2023-05-07T10:03:06;12.27;;;3.38;;
79338;SDS011;68809;41.712;44.768;2023-05-07T10:05:42;11.43;;;3.80;;
79338;SDS011;68809;41.712;44.768;2023-05-07T10:08:10;8.40;;;3.35;;
79338;SDS011;68809;41.712;44.768;2023-05-07T10:10:38;8.27;;;3.22;;
79338;SDS011;68809;41.712;44.768;2023-05-07T10:13:08;8.75;;;3.20;;
79338;SDS011;68809;41.712;44.768;2023-05-07T10:15:38;8.23;;;2.83;;
79338;SDS011;68809;41.712;44.768;2023-05-07T10:18:05;7.63;;;3.13;;
79338;SDS011;68809;41.712;44.768;2023-05-07T10:20:33;9.30;;;3.40;;
79338;SDS011;68809;41.712;44.768;2023-05-07T10:22:59;7.55;;;2.88;;
79338;SDS011;68809;41.712;44.768;2023-05-07T10:25:36;9.38;;;3.10;;
79338;SDS011;68809;41.712;44.768;2023-05-07T10:28:08;7.68;;;2.90;;
79338;SDS011;68809;41.712;44.768;2023-05-07T10:30:41;9.07;;;3.40;;
79338;SDS011;68809;41.712;44.768;2023-05-07T10:33:22;9.15;;;3.85;;
79338;SDS011;68809;41.712;44.768;2023-05-07T10:35:51;8.50;;;3.38;;
79338;SDS011;68809;41.712;44.768;2023-05-07T10:38:24;7.43;;;3.50;;
79338;SDS011;68809;41.712;44.768;2023-05-07T10:40:51;9.25;;;3.63;;
79338;SDS011;68809;41.712;44.768;2023-05-07T10:43:18;8.57;;;3.30;;
79338;SDS011;68809;41.712;44.768;2023-05-07T10:49:08;9.38;;;3.70;;
79338;SDS011;68809;41.712;44.768;2023-05-07T10:52:15;9.55;;;4.13;;
79338;SDS011;68809;41.712;44.768;2023-05-07T10:55:32;9.65;;;3.40;;
79338;SDS011;68809;41.712;44.768;2023-05-07T10:58:19;13.13;;;3.70;;
79338;SDS011;68809;41.712;44.768;2023-05-07T11:00:57;7.70;;;3.47;;
79338;SDS011;68809;41.712;44.768;2023-05-07T11:03:33;9.82;;;3.75;;
79338;SDS011;68809;41.712;44.768;2023-05-07T11:06:14;12.52;;;4.05;;
79338;SDS011;68809;41.712;44.768;2023-05-07T11:08:55;9.65;;;3.22;;
79338;SDS011;68809;41.712;44.768;2023-05-07T11:14:42;10.00;;;3.05;;
79338;SDS011;68809;41.712;44.768;2023-05-07T11:17:22;10.10;;;3.40;;
79338;SDS011;68809;41.712;44.768;2023-05-07T11:19:56;8.68;;;3.20;;
79338;SDS011;68809;41.712;44.768;2023-05-07T11:22:42;9.77;;;3.28;;
79338;SDS011;68809;41.712;44.768;2023-05-07T11:25:23;9.90;;;3.30;;
79338;SDS011;68809;41.712;44.768;2023-05-07T11:27:55;10.45;;;3.08;;
79338;SDS011;68809;41.712;44.768;2023-05-07T11:30:24;8.68;;;3.00;;
79338;SDS011;68809;41.712;44.768;2023-05-07T11:32:50;11.07;;;3.53;;
79338;SDS011;68809;41.712;44.768;2023-05-07T11:35:17;8.75;;;3.40;;
79338;SDS011;68809;41.712;44.768;2023-05-07T11:37:46;14.63;;;3.53;;
79338;SDS011;68809;41.712;44.768;2023-05-07T11:40:13;10.95;;;3.10;;
79338;SDS011;68809;41.712;44.768;2023-05-07T11:42:40;11.15;;;3.10;;
79338;SDS011;68809;41.712;44.768;2023-05-07T11:45:09;7.65;;;3.20;;
79338;SDS011;68809;41.712;44.768;2023-05-07T11:47:36;10.77;;;3.10;;
79338;SDS011;68809;41.712;44.768;2023-05-07T11:50:04;8.23;;;3.00;;
79338;SDS011;68809;41.712;44.768;2023-05-07T11:52:31;9.93;;;3.40;;
79338;SDS011;68809;41.712;44.768;2023-05-07T11:54:58;13.07;;;3.67;;
79338;SDS011;68809;41.712;44.768;2023-05-07T11:57:32;8.65;;;3.47;;
79338;SDS011;68809;41.712;44.768;2023-05-07T12:00:00;11.60;;;3.67;;
79338;SDS011;68809;41.712;44.768;2023-05-07T12:02:33;9.63;;;3.77;;
79338;SDS011;68809;41.712;44.768;2023-05-07T12:05:00;10.93;;;3.85;;
79338;SDS011;68809;41.712;44.768;2023-05-07T12:07:32;12.02;;;4.15;;
79338;SDS011;68809;41.712;44.768;2023-05-07T12:10:03;10.15;;;4.95;;
79338;SDS011;68809;41.712;44.768;2023-05-07T12:12:31;10.38;;;4.10;;
79338;SDS011;68809;41.712;44.768;2023-05-07T12:14:57;10.50;;;4.20;;
79338;SDS011;68809;41.712;44.768;2023-05-07T12:17:23;11.40;;;4.13;;
79338;SDS011;68809;41.712;44.768;2023-05-07T12:19:49;11.20;;;4.30;;
79338;SDS011;68809;41.712;44.768;2023-05-07T12:22:16;11.80;;;4.13;;
79338;SDS011;68809;41.712;44.768;2023-05-07T12:24:45;12.35;;;4.18;;
79338;SDS011;68809;41.712;44.768;2023-05-07T12:27:13;10.13;;;4.80;;
79338;SDS011;68809;41.712;44.768;2023-05-07T12:29:43;14.35;;;4.82;;
79338;SDS011;68809;41.712;44.768;2023-05-07T12:32:13;10.57;;;4.30;;
79338;SDS011;68809;41.712;44.768;2023-05-07T12:34:43;13.32;;;4.18;;
79338;SDS011;68809;41.712;44.768;2023-05-07T12:37:10;9.90;;;3.80;;
79338;SDS011;68809;41.712;44.768;2023-05-07T12:39:36;11.70;;;4.13;;
79338;SDS011;68809;41.712;44.768;2023-05-07T12:42:02;10.40;;;4.20;;
79338;SDS011;68809;41.712;44.768;2023-05-07T12:44:29;9.77;;;3.67;;
79338;SDS011;68809;41.712;44.768;2023-05-07T12:47:03;13.43;;;4.70;;
79338;SDS011;68809;41.712;44.768;2023-05-07T12:49:29;11.20;;;4.50;;
79338;SDS011;68809;41.712;44.768;2023-05-07T12:51:56;11.03;;;4.77;;
79338;SDS011;68809;41.712;44.768;2023-05-07T12:54:35;10.73;;;4.05;;
79338;SDS011;68809;41.712;44.768;2023-05-07T12:57:07;9.70;;;3.83;;
79338;SDS011;68809;41.712;44.768;2023-05-07T12:59:36;12.90;;;4.53;;
79338;SDS011;68809;41.712;44.768;2023-05-07T13:02:03;8.95;;;4.10;;
79338;SDS011;68809;41.712;44.768;2023-05-07T13:04:30;9.10;;;3.70;;
79338;SDS011;68809;41.712;44.768;2023-05-07T13:06:57;12.50;;;3.95;;
79338;SDS011;68809;41.712;44.768;2023-05-07T13:09:23;12.63;;;3.95;;
79338;SDS011;68809;41.712;44.768;2023-05-07T13:11:50;12.65;;;3.83;;
79338;SDS011;68809;41.712;44.768;2023-05-07T13:14:16;9.05;;;3.90;;
79338;SDS011;68809;41.712;44.768;2023-05-07T13:16:42;9.83;;;3.90;;
79338;SDS011;68809;41.712;44.768;2023-05-07T13:19:12;10.02;;;3.80;;
79338;SDS011;68809;41.712;44.768;2023-05-07T13:21:38;8.93;;;3.65;;
79338;SDS011;68809;41.712;44.768;2023-05-07T13:24:04;8.80;;;3.85;;
79338;SDS011;68809;41.712;44.768;2023-05-07T13:26:31;10.00;;;3.80;;
79338;SDS011;68809;41.712;44.768;2023-05-07T13:28:57;11.17;;;3.90;;
79338;SDS011;68809;41.712;44.768;2023-05-07T13:31:24;7.90;;;3.75;;
79338;SDS011;68809;41.712;44.768;2023-05-07T13:33:50;9.82;;;3.97;;
79338;SDS011;68809;41.712;44.768;2023-05-07T13:36:18;11.02;;;4.10;;
79338;SDS011;68809;41.712;44.768;2023-05-07T13:38:44;8.82;;;3.90;;
79338;SDS011;68809;41.712;44.768;2023-05-07T13:41:10;7.83;;;3.47;;
79338;SDS011;68809;41.712;44.768;2023-05-07T13:43:38;9.50;;;4.30;;
79338;SDS011;68809;41.712;44.768;2023-05-07T13:46:04;9.07;;;4.15;;
79338;SDS011;68809;41.712;44.768;2023-05-07T13:48:31;9.57;;;3.65;;
79338;SDS011;68809;41.712;44.768;2023-05-07T13:50:57;10.50;;;3.70;;
79338;SDS011;68809;41.712;44.768;2023-05-07T13:53:23;9.70;;;3.87;;
79338;SDS011;68809;41.712;44.768;2023-05-07T13:55:49;9.57;;;3.50;;
79338;SDS011;68809;41.712;44.768;2023-05-07T13:58:16;9.43;;;3.70;;
79338;SDS011;68809;41.712;44.768;2023-05-07T14:00:42;10.55;;;3.55;;
79338;SDS011;68809;41.712;44.768;2023-05-07T14:03:08;14.98;;;3.92;;
79338;SDS011;68809;41.712;44.768;2023-05-07T14:05:34;10.37;;;3.73;;
79338;SDS011;68809;41.712;44.768;2023-05-07T14:08:01;11.88;;;4.00;;
79338;SDS011;68809;41.712;44.768;2023-05-07T14:10:29;11.95;;;3.90;;
79338;SDS011;68809;41.712;44.768;2023-05-07T14:12:56;7.60;;;3.40;;
79338;SDS011;68809;41.712;44.768;2023-05-07T14:15:22;10.23;;;3.50;;
79338;SDS011;68809;41.712;44.768;2023-05-07T14:17:48;13.10;;;3.70;;
79338;SDS011;68809;41.712;44.768;2023-05-07T14:20:14;12.48;;;4.32;;
79338;SDS011;68809;41.712;44.768;2023-05-07T14:22:40;10.48;;;4.70;;
79338;SDS011;68809;41.712;44.768;2023-05-07T14:25:07;8.75;;;3.72;;
79338;SDS011;68809;41.712;44.768;2023-05-07T14:27:35;11.30;;;4.10;;
79338;SDS011;68809;41.712;44.768;2023-05-07T14:30:01;10.23;;;4.53;;
79338;SDS011;68809;41.712;44.768;2023-05-07T14:32:32;12.25;;;4.13;;
79338;SDS011;68809;41.712;44.768;2023-05-07T14:34:59;12.85;;;4.90;;